Etusivu
METAR-TAF:

METAR-TAF

Lentoasemat :

Nižni Novgorodin lentoasema

Nižni Novgorod, Venäjä

Leveyspiiri: 56-19-48N, Pituuspiiri: 044-00E, korkeus merenpinnasta: 78 m

Tämänhetkinen sää

Tämä raportti tehtiin 34 minuuttia sitten, kello 15.30 UTC
Tuuli 8 kn etelästä/lounaasta
Lämpötila 5°C
Kosteus 75%
Ilmanpaine 1017 hPa
Näkyvyys 10 km tai enemmän
ei pilviä alle 1500 m:ssä eikä cumulonimbus-pilviä

METAR: UWGG 221530Z 20004MPS CAVOK 05/01 Q1017 R18L/090070 NOSIG

Aika: 19:04 (16:04 UTC)

Sääennuste

Tämä raportti tehtiin 2 tuntia ja 14 minuuttia sitten, kello 13.50 UTC
Ennuste voimassa 22. päivästä klo 15 UTC - 23. päivään klo 15 UTC
Tuuli 6 kn etelästä/lounaasta
Näkyvyys: 5000 m
Hajonneita pilviä 1600 ft:n korkeudessa
utua
Ajoittain
23. päivästä klo 03 UTC - 23. päivään klo 15 UTC
Tuuli 12 kn lounaasta puuskistuen 27 kn:hen

TAF: UWGG 221350Z 2215/2315 21003MPS 5000 BR BKN016 TX07/2312Z TNM01/2304Z TEMPO 2303/2315 23006G14MPS

Säähavainnot ja -ennusteet yli 4000 lentoasemalta (METAR- ja TAF-raportit).

Käytössä olevat sääasemat on merkitty karttaan keltaisilla ja punaisilla pisteillä.

Aseta hiiri pisteen päälle nähdäksesi sääaseman nimen.

Klikkaa sitten nähdäksesi säähavainnot ja -ennusteet.

Kartan vaihtaminen: klikkaa mustalla rastilla varustettuja vihreitä pisteitä, niin voit zoomata sisään; viivalla varustettua vihreää pistettä, niin voit zoomata ulos tai vihreitä nuolia, niin pääset viereisille kartoille.


METAR-TAF: